Time;durP1;ratioP1;P1;durP2;ratioP2;P2;SDS_P1;SDS_P2;PMS_P1;PMS_P2;Temp;Humidity;BMP_temperature;BMP_pressure;BME280_temperature;BME280_humidity;BME280_pressure;Samples;Min_cycle;Max_cycle;Signal;HPM_P1;HPM_P2
2023/07/16 05:08:52;;;;;;;;;;;;;;;;;;4394495;26;19924;-48
2023/07/16 05:11:18;;;;;;;;;;;;;;;;;;5069680;28;20440;-48
2023/07/16 05:13:43;;;;;;;;;;;;;;;;;;5069529;28;20197;-45
2023/07/16 05:16:09;;;;;;;;;;;;;;;;;;5069817;28;19924;-47
2023/07/16 05:18:35;;;;;;;;;;;;;;;;;;5069353;28;20310;-48
2023/07/16 05:21:01;;;;;;;;;;;;;;;;;;5069618;28;19908;-46
2023/07/16 05:23:27;;;;;;;;;;;;;;;;;;5069228;28;19962;-45
2023/07/16 05:25:53;;;;;;;;;;;;;;;;;;5069439;28;19936;-46
2023/07/16 05:28:19;;;;;;;;;;;;;;;;;;5069419;28;19913;-46
2023/07/16 05:30:45;;;;;;;;;;;;;;;;;;5069125;28;19970;-44
2023/07/16 05:33:10;;;;;;;;;;;;;;;;;;5068774;28;19912;-44
2023/07/16 05:35:36;;;;;;;;;;;;;;;;;;5069438;28;20302;-46
2023/07/16 05:38:02;;;;;;;;;;;;;;;;;;5068804;28;19915;-47
2023/07/16 05:40:29;;;;;;;;;;;;;;;;;;5069278;28;19937;-45
2023/07/16 05:42:55;;;;;;;;;;;;;;;;;;5068932;28;19915;-45
2023/07/16 05:45:20;;;;;;;;;;;;;;;;;;5069062;28;19908;-46
2023/07/16 05:47:46;;;;;;;;;;;;;;;;;;5068218;28;19909;-47
2023/07/16 05:50:12;;;;;;;;;;;;;;;;;;5074649;28;19913;-44
2023/07/16 05:52:38;;;;;;;;;;;;;;;;;;5074704;28;19962;-46
2023/07/16 05:55:04;;;;;;;;;;;;;;;;;;5072811;28;19916;-45
2023/07/16 05:57:30;;;;;;;;;;;;;;;;;;5070506;28;19913;-46
2023/07/16 05:59:56;;;;;;;;;;;;;;;;;;5072478;28;19908;-45
2023/07/16 06:02:22;;;;;;;;;;;;;;;;;;5072829;28;20329;-46
2023/07/16 06:04:47;;;;;;;;;;;;;;;;;;5073082;28;19912;-45
2023/07/16 06:07:13;;;;;;;;;;;;;;;;;;5060221;28;19913;-44
2023/07/16 06:09:39;;;;;;;;;;;;;;;;;;5052802;28;19960;-45
2023/07/16 06:12:05;;;;;;;;;;;;;;;;;;5052589;28;19908;-45
2023/07/16 06:14:31;;;;;;;;;;;;;;;;;;5052877;28;19912;-45
2023/07/16 06:16:57;;;;;;;;;;;;;;;;;;5052393;28;20287;-45
2023/07/16 06:19:23;;;;;;;;;;;;;;;;;;5052752;28;19920;-46
2023/07/16 06:21:49;;;;;;;;;;;;;;;;;;5052678;28;19913;-45
2023/07/16 06:24:15;;;;;;;;;;;;;;;;;;5052794;28;20399;-45
2023/07/16 06:26:41;;;;;;;;;;;;;;;;;;5052473;28;19909;-48
2023/07/16 06:29:07;;;;;;;;;;;;;;;;;;5052824;28;19935;-44
2023/07/16 06:31:32;;;;;;;;;;;;;;;;;;5064981;28;19913;-47
2023/07/16 06:33:58;;;;;;;;;;;;;;;;;;5072418;28;19913;-46
2023/07/16 06:36:24;;;;;;;;;;;;;;;;;;5071353;28;19909;-46
2023/07/16 06:38:50;;;;;;;;;;;;;;;;;;5062949;28;19991;-45
2023/07/16 06:41:16;;;;;;;;;;;;;;;;;;5072345;28;19916;-45
2023/07/16 06:43:42;;;;;;;;;;;;;;;;;;5071502;28;20426;-46
2023/07/16 06:46:08;;;;;;;;;;;;;;;;;;5072067;28;19944;-46
2023/07/16 06:48:34;;;;;;;;;;;;;;;;;;5071012;28;19919;-46
2023/07/16 06:51:00;;;;;;;;;;;;;;;;;;5061865;28;19908;-49
2023/07/16 06:53:26;;;;;;;;;;;;;;;;;;5072519;28;19919;-48
2023/07/16 06:55:52;;;;;;;;;;;;;;;;;;5057554;28;19939;-46
2023/07/16 06:58:18;;;;;;;;;;;;;;;;;;5053266;28;19909;-46
2023/07/16 07:00:43;;;;;;;;;;;;;;;;;;5056908;28;19935;-45
2023/07/16 07:03:09;;;;;;;;;;;;;;;;;;5071515;28;20168;-46
2023/07/16 07:05:38;;;;;;;;;;;;;;;;;;5070233;28;20422;-50
2023/07/16 07:08:04;;;;;;;;;;;;;;;;;;5051643;28;19920;-47
2023/07/16 07:10:30;;;;;;;;;;;;;;;;;;5070636;28;19916;-48
2023/07/16 07:12:56;;;;;;;;;;;;;;;;;;5060120;28;20286;-45
2023/07/16 07:15:21;;;;;;;;;;;;;;;;;;5070898;28;19912;-48
2023/07/16 07:17:48;;;;;;;;;;;;;;;;;;5055567;28;19974;-49
2023/07/16 07:20:14;;;;;;;;;;;;;;;;;;5051110;28;19909;-45
2023/07/16 07:22:42;;;;;;;;;;;;;;;;;;5056635;28;20220;-46
2023/07/16 07:25:08;;;;;;;;;;;;;;;;;;5066709;28;20349;-46
2023/07/16 07:27:34;;;;;;;;;;;;;;;;;;5068733;28;19935;-46
2023/07/16 07:29:59;;;;;;;;;;;;;;;;;;5063408;28;19951;-45
2023/07/16 07:32:25;;;;;;;;;;;;;;;;;;5069587;28;19913;-49
2023/07/16 07:34:51;;;;;;;;;;;;;;;;;;5066191;28;19920;-49
2023/07/16 07:37:17;;;;;;;;;;;;;;;;;;5058389;28;20341;-46
2023/07/16 07:39:47;;;;;;;;;;;;;;;;;;5050237;28;19964;-50
2023/07/16 07:42:13;;;;;;;;;;;;;;;;;;5066255;28;19944;-46
2023/07/16 07:44:39;;;;;;;;;;;;;;;;;;5069879;28;20295;-46
2023/07/16 07:47:05;;;;;;;;;;;;;;;;;;5059260;28;19972;-48
2023/07/16 07:49:31;;;;;;;;;;;;;;;;;;5070347;28;19913;-48
2023/07/16 07:51:57;;;;;;;;;;;;;;;;;;5048759;28;19912;-47
2023/07/16 07:54:22;;;;;;;;;;;;;;;;;;5069259;28;19974;-47
2023/07/16 07:56:48;;;;;;;;;;;;;;;;;;5069131;28;19916;-46
2023/07/16 07:59:14;;;;;;;;;;;;;;;;;;5069275;28;19913;-46
2023/07/16 08:01:40;;;;;;;;;;;;;;;;;;5063773;28;19912;-47
2023/07/16 08:04:06;;;;;;;;;;;;;;;;;;5051891;28;19913;-45
2023/07/16 08:06:32;;;;;;;;;;;;;;;;;;5059737;28;19912;-47
2023/07/16 08:08:58;;;;;;;;;;;;;;;;;;5069958;28;20345;-47
2023/07/16 08:11:24;;;;;;;;;;;;;;;;;;5058024;28;19923;-46
2023/07/16 08:13:49;;;;;;;;;;;;;;;;;;5055874;28;20386;-47
2023/07/16 08:16:15;;;;;;;;;;;;;;;;;;5067455;28;19916;-49
2023/07/16 08:18:41;;;;;;;;;;;;;;;;;;5067565;28;20268;-46
2023/07/16 08:21:07;;;;;;;;;;;;;;;;;;5070010;28;19999;-47
2023/07/16 08:23:33;;;;;;;;;;;;;;;;;;5060621;28;19956;-47
2023/07/16 08:25:59;;;;;;;;;;;;;;;;;;5059868;28;19913;-47
2023/07/16 08:28:25;;;;;;;;;;;;;;;;;;5035076;28;19909;-48
2023/07/16 08:30:51;;;;;;;;;;;;;;;;;;5066286;28;20459;-48
2023/07/16 08:33:17;;;;;;;;;;;;;;;;;;5060490;28;19920;-45
2023/07/16 08:35:43;;;;;;;;;;;;;;;;;;5050672;28;19962;-46
2023/07/16 08:38:11;;;;;;;;;;;;;;;;;;5060668;28;19952;-48
2023/07/16 08:40:37;;;;;;;;;;;;;;;;;;5051226;28;19963;-47
2023/07/16 08:43:03;;;;;;;;;;;;;;;;;;5055038;28;19912;-49
2023/07/16 08:45:30;;;;;;;;;;;;;;;;;;5069290;28;19923;-47
2023/07/16 08:47:55;;;;;;;;;;;;;;;;;;5064328;28;19940;-48
2023/07/16 08:50:21;;;;;;;;;;;;;;;;;;5049366;28;19955;-47
2023/07/16 08:52:47;;;;;;;;;;;;;;;;;;5064265;28;20439;-41
2023/07/16 08:55:13;;;;;;;;;;;;;;;;;;5069349;28;19920;-40
2023/07/16 08:57:39;;;;;;;;;;;;;;;;;;5069777;28;19963;-41
2023/07/16 09:00:05;;;;;;;;;;;;;;;;;;5067477;28;19913;-40
2023/07/16 09:02:31;;;;;;;;;;;;;;;;;;5073626;28;20447;-40
2023/07/16 09:04:57;;;;;;;;;;;;;;;;;;5067627;28;19995;-40
2023/07/16 09:07:23;;;;;;;;;;;;;;;;;;5066630;28;19908;-40
2023/07/16 09:09:49;;;;;;;;;;;;;;;;;;5057841;28;19912;-41
2023/07/16 09:12:14;;;;;;;;;;;;;;;;;;5067620;28;19927;-39
2023/07/16 09:14:41;;;;;;;;;;;;;;;;;;5062141;28;20345;-39
2023/07/16 09:17:07;;;;;;;;;;;;;;;;;;5067039;28;19943;-39
2023/07/16 09:19:33;;;;;;;;;;;;;;;;;;5065513;28;20009;-39
2023/07/16 09:21:59;;;;;;;;;;;;;;;;;;5061068;28;19913;-40
2023/07/16 09:24:25;;;;;;;;;;;;;;;;;;5067377;28;20345;-39
2023/07/16 09:26:51;;;;;;;;;;;;;;;;;;5067571;28;19919;-40
2023/07/16 09:29:17;;;;;;;;;;;;;;;;;;5064867;28;19967;-40
2023/07/16 09:31:43;;;;;;;;;;;;;;;;;;5066479;28;19912;-40
2023/07/16 09:34:09;;;;;;;;;;;;;;;;;;5066773;28;20391;-40
2023/07/16 09:36:34;;;;;;;;;;;;;;;;;;5064804;28;19912;-40
2023/07/16 09:39:00;;;;;;;;;;;;;;;;;;5059181;28;19952;-40
2023/07/16 09:41:26;;;;;;;;;;;;;;;;;;5060589;28;19912;-40
2023/07/16 09:43:52;;;;;;;;;;;;;;;;;;5067011;28;19920;-40
2023/07/16 09:46:18;;;;;;;;;;;;;;;;;;5058338;28;19944;-40
2023/07/16 09:48:44;;;;;;;;;;;;;;;;;;5061634;28;19990;-40
2023/07/16 09:51:10;;;;;;;;;;;;;;;;;;5067360;28;20410;-40
2023/07/16 09:53:35;;;;;;;;;;;;;;;;;;5068042;28;19959;-39
2023/07/16 09:56:01;;;;;;;;;;;;;;;;;;5067172;28;19913;-39
2023/07/16 09:58:27;;;;;;;;;;;;;;;;;;5065376;28;19917;-40
2023/07/16 10:00:53;;;;;;;;;;;;;;;;;;5060200;28;19940;-40
2023/07/16 10:03:19;;;;;;;;;;;;;;;;;;5047004;28;20232;-40
2023/07/16 10:05:45;;;;;;;;;;;;;;;;;;5051945;28;19913;-39
2023/07/16 10:08:11;;;;;;;;;;;;;;;;;;5061755;28;20397;-40
2023/07/16 10:10:37;;;;;;;;;;;;;;;;;;5065967;28;20312;-40
2023/07/16 10:13:03;;;;;;;;;;;;;;;;;;5060361;28;19913;-40
2023/07/16 10:15:29;;;;;;;;;;;;;;;;;;5046962;28;20057;-40
2023/07/16 10:17:55;;;;;;;;;;;;;;;;;;5047812;28;20023;-39
2023/07/16 10:20:21;;;;;;;;;;;;;;;;;;5048535;28;19920;-40
2023/07/16 10:22:47;;;;;;;;;;;;;;;;;;5066736;28;19912;-39
2023/07/16 10:25:13;;;;;;;;;;;;;;;;;;5059766;28;20342;-40
2023/07/16 10:27:38;;;;;;;;;;;;;;;;;;5062915;28;20160;-39
2023/07/16 10:30:04;;;;;;;;;;;;;;;;;;5067578;28;20443;-39
2023/07/16 10:32:30;;;;;;;;;;;;;;;;;;5068225;28;20591;-39
2023/07/16 10:34:56;;;;;;;;;;;;;;;;;;5068587;28;19963;-39
2023/07/16 10:37:22;;;;;;;;;;;;;;;;;;5071033;28;19912;-40
2023/07/16 10:39:48;;;;;;;;;;;;;;;;;;5071691;28;19908;-40
2023/07/16 10:42:14;;;;;;;;;;;;;;;;;;5068855;28;19912;-40
2023/07/16 10:44:40;;;;;;;;;;;;;;;;;;5064376;28;20387;-39
2023/07/16 10:47:06;;;;;;;;;;;;;;;;;;5070774;28;19916;-39
2023/07/16 10:49:32;;;;;;;;;;;;;;;;;;5070789;28;20302;-39
2023/07/16 10:51:57;;;;;;;;;;;;;;;;;;5071969;28;19998;-39
2023/07/16 10:54:24;;;;;;;;;;;;;;;;;;5070054;28;19959;-40
2023/07/16 10:56:51;;;;;;;;;;;;;;;;;;5071800;28;19915;-39
2023/07/16 10:59:16;;;;;;;;;;;;;;;;;;5071529;28;20274;-40
2023/07/16 11:01:43;;;;;;;;;;;;;;;;;;5065672;28;19919;-39
2023/07/16 11:04:09;;;;;;;;;;;;;;;;;;5070972;28;19922;-40
2023/07/16 11:06:35;;;;;;;;;;;;;;;;;;5071518;28;19999;-40
2023/07/16 11:09:01;;;;;;;;;;;;;;;;;;5071378;28;19966;-39
2023/07/16 11:11:27;;;;;;;;;;;;;;;;;;5069420;28;19917;-40
2023/07/16 11:13:53;;;;;;;;;;;;;;;;;;5071440;28;19951;-40
2023/07/16 11:16:19;;;;;;;;;;;;;;;;;;5071117;28;19917;-40
2023/07/16 11:18:45;;;;;;;;;;;;;;;;;;5070965;28;19909;-39
2023/07/16 11:21:10;;;;;;;;;;;;;;;;;;5071575;28;19909;-40
2023/07/16 11:23:36;;;;;;;;;;;;;;;;;;5069999;28;20376;-40
2023/07/16 11:26:03;;;;;;;;;;;;;;;;;;5071090;28;19916;-40
2023/07/16 11:28:29;;;;;;;;;;;;;;;;;;5070956;28;20405;-39
2023/07/16 11:30:54;;;;;;;;;;;;;;;;;;5069751;28;19913;-40
2023/07/16 11:33:20;;;;;;;;;;;;;;;;;;5069726;28;19951;-40
2023/07/16 11:35:46;;;;;;;;;;;;;;;;;;5070717;28;19912;-40
2023/07/16 11:38:12;;;;;;;;;;;;;;;;;;5070629;28;20379;-39
2023/07/16 11:40:38;;;;;;;;;;;;;;;;;;5071365;28;19955;-40
2023/07/16 11:43:04;;;;;;;;;;;;;;;;;;5069014;28;19923;-40
2023/07/16 11:45:30;;;;;;;;;;;;;;;;;;5068943;28;19919;-40
2023/07/16 11:47:56;;;;;;;;;;;;;;;;;;5069708;28;20036;-40
2023/07/16 11:50:22;;;;;;;;;;;;;;;;;;5062443;28;19944;-39
2023/07/16 11:52:48;;;;;;;;;;;;;;;;;;5060318;28;20332;-40
2023/07/16 11:55:14;;;;;;;;;;;;;;;;;;5050580;28;20021;-40
2023/07/16 11:57:39;;;;;;;;;;;;;;;;;;5065164;28;20055;-40
2023/07/16 12:00:06;;;;;;;;;;;;;;;;;;5070296;28;19975;-40
2023/07/16 12:02:32;;;;;;;;;;;;;;;;;;5069353;28;19923;-40
2023/07/16 12:04:58;;;;;;;;;;;;;;;;;;5069377;28;20258;-40
2023/07/16 12:07:24;;;;;;;;;;;;;;;;;;5067445;28;20389;-40
2023/07/16 12:09:50;;;;;;;;;;;;;;;;;;5070125;28;19920;-40
2023/07/16 12:12:16;;;;;;;;;;;;;;;;;;5069118;28;19958;-40
2023/07/16 12:14:42;;;;;;;;;;;;;;;;;;5070665;28;20038;-39
2023/07/16 12:17:08;;;;;;;;;;;;;;;;;;5069993;28;19916;-40
2023/07/16 12:19:34;;;;;;;;;;;;;;;;;;5070000;28;20325;-39
2023/07/16 12:21:59;;;;;;;;;;;;;;;;;;5068913;28;19944;-39
2023/07/16 12:24:25;;;;;;;;;;;;;;;;;;5069979;28;19909;-40
2023/07/16 12:26:51;;;;;;;;;;;;;;;;;;5069952;28;20364;-40
2023/07/16 12:29:17;;;;;;;;;;;;;;;;;;5069161;28;19912;-40
2023/07/16 12:31:43;;;;;;;;;;;;;;;;;;5059436;28;19913;-40
2023/07/16 12:34:09;;;;;;;;;;;;;;;;;;5065941;28;19916;-40
2023/07/16 12:36:35;;;;;;;;;;;;;;;;;;5066490;28;20472;-40
2023/07/16 12:39:01;;;;;;;;;;;;;;;;;;5068361;28;19913;-40
2023/07/16 12:41:26;;;;;;;;;;;;;;;;;;5067461;28;19915;-40
2023/07/16 12:43:52;;;;;;;;;;;;;;;;;;5067169;28;19912;-40
2023/07/16 12:46:18;;;;;;;;;;;;;;;;;;5066171;28;19922;-40
2023/07/16 12:48:44;;;;;;;;;;;;;;;;;;5067612;28;19913;-40
2023/07/16 12:51:10;;;;;;;;;;;;;;;;;;5068108;28;19915;-40
2023/07/16 12:53:36;;;;;;;;;;;;;;;;;;5067650;28;20089;-40
2023/07/16 12:56:02;;;;;;;;;;;;;;;;;;5049027;28;20322;-40
2023/07/16 12:58:28;;;;;;;;;;;;;;;;;;5066479;28;20378;-40
2023/07/16 13:00:54;;;;;;;;;;;;;;;;;;5068067;28;20004;-40
2023/07/16 13:03:21;;;;;;;;;;;;;;;;;;5067046;28;19936;-40
2023/07/16 13:05:47;;;;;;;;;;;;;;;;;;5067859;28;19908;-40
2023/07/16 13:08:13;;;;;;;;;;;;;;;;;;5066654;28;19918;-40
2023/07/16 13:10:39;;;;;;;;;;;;;;;;;;5067688;28;19959;-40
2023/07/16 13:13:05;;;;;;;;;;;;;;;;;;5066640;28;19938;-40
2023/07/16 13:15:31;;;;;;;;;;;;;;;;;;5067708;28;19923;-40
2023/07/16 13:17:56;;;;;;;;;;;;;;;;;;5067002;28;19913;-40
2023/07/16 13:20:23;;;;;;;;;;;;;;;;;;5066638;28;19913;-40
2023/07/16 13:22:49;;;;;;;;;;;;;;;;;;5067683;28;19913;-40
2023/07/16 13:25:15;;;;;;;;;;;;;;;;;;5066700;28;20011;-40
2023/07/16 13:27:41;;;;;;;;;;;;;;;;;;5067359;28;20371;-40
2023/07/16 13:30:07;;;;;;;;;;;;;;;;;;5067641;28;19909;-40
2023/07/16 13:32:33;;;;;;;;;;;;;;;;;;5067404;28;20379;-40
2023/07/16 13:34:59;;;;;;;;;;;;;;;;;;5066566;28;19955;-40
2023/07/16 13:37:25;;;;;;;;;;;;;;;;;;5066283;28;19920;-40
2023/07/16 13:39:51;;;;;;;;;;;;;;;;;;5054087;28;19943;-40
2023/07/16 13:42:16;;;;;;;;;;;;;;;;;;5057718;28;19912;-40
2023/07/16 13:44:42;;;;;;;;;;;;;;;;;;5063575;28;19916;-40
2023/07/16 13:47:08;;;;;;;;;;;;;;;;;;5058996;28;19913;-40
2023/07/16 13:49:34;;;;;;;;;;;;;;;;;;5048581;28;20375;-40
2023/07/16 13:52:00;;;;;;;;;;;;;;;;;;5066660;28;19956;-40
2023/07/16 13:54:26;;;;;;;;;;;;;;;;;;5068607;28;19915;-41
2023/07/16 13:56:52;;;;;;;;;;;;;;;;;;5067551;28;19915;-40
2023/07/16 13:59:18;;;;;;;;;;;;;;;;;;5066953;28;20382;-40
2023/07/16 14:01:43;;;;;;;;;;;;;;;;;;5053316;28;19920;-40
2023/07/16 14:04:09;;;;;;;;;;;;;;;;;;5048800;28;19990;-40
2023/07/16 14:06:35;;;;;;;;;;;;;;;;;;5061656;28;19988;-40
2023/07/16 14:09:01;;;;;;;;;;;;;;;;;;5066304;28;20386;-40
2023/07/16 14:11:27;;;;;;;;;;;;;;;;;;5070074;28;19923;-40
2023/07/16 14:13:53;;;;;;;;;;;;;;;;;;5071219;28;19908;-40
2023/07/16 14:16:19;;;;;;;;;;;;;;;;;;5071734;28;20322;-40
2023/07/16 14:18:45;;;;;;;;;;;;;;;;;;5070968;28;19908;-40
2023/07/16 14:21:11;;;;;;;;;;;;;;;;;;5071033;28;20391;-40
2023/07/16 14:23:36;;;;;;;;;;;;;;;;;;5070829;28;19912;-40
2023/07/16 14:26:02;;;;;;;;;;;;;;;;;;5063458;28;19944;-40
2023/07/16 14:28:28;;;;;;;;;;;;;;;;;;5069553;28;19912;-40
2023/07/16 14:30:54;;;;;;;;;;;;;;;;;;5070918;28;19908;-40
2023/07/16 14:33:20;;;;;;;;;;;;;;;;;;5071231;28;19955;-40
2023/07/16 14:35:46;;;;;;;;;;;;;;;;;;5069618;28;20398;-41
2023/07/16 14:38:12;;;;;;;;;;;;;;;;;;5070140;28;19912;-40
2023/07/16 14:40:38;;;;;;;;;;;;;;;;;;5069416;28;19977;-40
2023/07/16 14:43:03;;;;;;;;;;;;;;;;;;5069393;28;19912;-40
2023/07/16 14:45:29;;;;;;;;;;;;;;;;;;5069977;28;19917;-41
2023/07/16 14:47:55;;;;;;;;;;;;;;;;;;5070415;28;20378;-40
2023/07/16 14:50:21;;;;;;;;;;;;;;;;;;5070148;28;19921;-40
2023/07/16 14:52:47;;;;;;;;;;;;;;;;;;5070230;28;19908;-40
2023/07/16 14:55:15;;;;;;;;;;;;;;;;;;5070210;28;19937;-41
2023/07/16 14:57:41;;;;;;;;;;;;;;;;;;5051416;28;20298;-40
2023/07/16 15:00:07;;;;;;;;;;;;;;;;;;5069209;28;19915;-40
2023/07/16 15:02:33;;;;;;;;;;;;;;;;;;5070159;28;19909;-40
2023/07/16 15:04:59;;;;;;;;;;;;;;;;;;5067964;28;20394;-40
2023/07/16 15:07:25;;;;;;;;;;;;;;;;;;5069303;28;20401;-41
2023/07/16 15:09:51;;;;;;;;;;;;;;;;;;5071694;28;20632;-41
2023/07/16 15:12:17;;;;;;;;;;;;;;;;;;5068283;28;19921;-41
2023/07/16 15:14:43;;;;;;;;;;;;;;;;;;5068772;28;20007;-40
2023/07/16 15:17:09;;;;;;;;;;;;;;;;;;5069369;28;19916;-41
2023/07/16 15:19:35;;;;;;;;;;;;;;;;;;5070239;28;19912;-40
2023/07/16 15:22:01;;;;;;;;;;;;;;;;;;5070047;28;20282;-40
2023/07/16 15:24:27;;;;;;;;;;;;;;;;;;5068842;28;19912;-40
2023/07/16 15:26:53;;;;;;;;;;;;;;;;;;5059682;28;20007;-40
2023/07/16 15:29:19;;;;;;;;;;;;;;;;;;5050789;28;19999;-41
2023/07/16 15:31:45;;;;;;;;;;;;;;;;;;5071097;28;19912;-40
2023/07/16 15:34:11;;;;;;;;;;;;;;;;;;5068873;28;19912;-40
2023/07/16 15:36:37;;;;;;;;;;;;;;;;;;5067694;28;19924;-41
2023/07/16 15:39:03;;;;;;;;;;;;;;;;;;5068731;28;19948;-40
2023/07/16 15:41:29;;;;;;;;;;;;;;;;;;5066806;28;20357;-41
2023/07/16 15:43:55;;;;;;;;;;;;;;;;;;5070291;28;19969;-40
2023/07/16 15:46:21;;;;;;;;;;;;;;;;;;5059628;28;19982;-41
2023/07/16 15:48:47;;;;;;;;;;;;;;;;;;5064139;28;19935;-41
2023/07/16 15:51:12;;;;;;;;;;;;;;;;;;5068710;28;20007;-40
2023/07/16 15:53:38;;;;;;;;;;;;;;;;;;5066490;28;19958;-40
2023/07/16 15:56:04;;;;;;;;;;;;;;;;;;5070405;28;20025;-40
2023/07/16 15:58:30;;;;;;;;;;;;;;;;;;5070113;28;20446;-40
2023/07/16 16:00:56;;;;;;;;;;;;;;;;;;5057449;28;19919;-40
2023/07/16 16:03:22;;;;;;;;;;;;;;;;;;5060521;28;19948;-40
2023/07/16 16:05:48;;;;;;;;;;;;;;;;;;5055208;28;20009;-40
2023/07/16 16:08:14;;;;;;;;;;;;;;;;;;5066409;28;19916;-41
2023/07/16 16:10:40;;;;;;;;;;;;;;;;;;5065541;28;19916;-40
2023/07/16 16:13:06;;;;;;;;;;;;;;;;;;5069594;28;19920;-40
2023/07/16 16:15:32;;;;;;;;;;;;;;;;;;5070039;28;20522;-40
2023/07/16 16:17:58;;;;;;;;;;;;;;;;;;5067104;28;19917;-40
2023/07/16 16:20:24;;;;;;;;;;;;;;;;;;5066467;28;20314;-40
2023/07/16 16:22:49;;;;;;;;;;;;;;;;;;5045152;28;19920;-40
2023/07/16 16:25:15;;;;;;;;;;;;;;;;;;5054431;28;20497;-40
2023/07/16 16:27:41;;;;;;;;;;;;;;;;;;5059534;28;19912;-40
2023/07/16 16:30:07;;;;;;;;;;;;;;;;;;5061877;28;20218;-40
2023/07/16 16:32:33;;;;;;;;;;;;;;;;;;5058117;28;19920;-40
2023/07/16 16:34:59;;;;;;;;;;;;;;;;;;5065069;28;19920;-40
2023/07/16 16:37:25;;;;;;;;;;;;;;;;;;5062229;28;19912;-40
2023/07/16 16:39:53;;;;;;;;;;;;;;;;;;5062512;28;20359;-40
2023/07/16 16:42:19;;;;;;;;;;;;;;;;;;5060991;28;19923;-40
2023/07/16 16:44:45;;;;;;;;;;;;;;;;;;5043195;28;19912;-40
2023/07/16 16:47:11;;;;;;;;;;;;;;;;;;5064828;28;19971;-40
2023/07/16 16:49:37;;;;;;;;;;;;;;;;;;5044303;28;19913;-41
2023/07/16 16:52:03;;;;;;;;;;;;;;;;;;5062272;28;20500;-40
2023/07/16 16:54:28;;;;;;;;;;;;;;;;;;5056901;28;20343;-40
2023/07/16 16:56:54;;;;;;;;;;;;;;;;;;5060866;28;19912;-40
2023/07/16 16:59:20;;;;;;;;;;;;;;;;;;5041462;28;19948;-40
2023/07/16 17:01:46;;;;;;;;;;;;;;;;;;5057208;28;19957;-40
2023/07/16 17:04:12;;;;;;;;;;;;;;;;;;5061008;28;19913;-40
2023/07/16 17:06:38;;;;;;;;;;;;;;;;;;5046922;28;19920;-41
2023/07/16 17:09:04;;;;;;;;;;;;;;;;;;5059326;28;19954;-40
2023/07/16 17:11:30;;;;;;;;;;;;;;;;;;5060303;28;19962;-40
2023/07/16 17:13:56;;;;;;;;;;;;;;;;;;5044992;28;19920;-40
2023/07/16 17:16:22;;;;;;;;;;;;;;;;;;5057417;28;20441;-40
2023/07/16 17:18:48;;;;;;;;;;;;;;;;;;5064117;28;19917;-40
2023/07/16 17:21:13;;;;;;;;;;;;;;;;;;5062816;28;19921;-40
2023/07/16 17:23:39;;;;;;;;;;;;;;;;;;5059238;28;19917;-40
2023/07/16 17:26:05;;;;;;;;;;;;;;;;;;5067509;28;19920;-40
2023/07/16 17:28:31;;;;;;;;;;;;;;;;;;5042059;28;19913;-40
2023/07/16 17:31:00;;;;;;;;;;;;;;;;;;5064903;28;19920;-40
2023/07/16 17:33:26;;;;;;;;;;;;;;;;;;5063681;28;19912;-40
2023/07/16 17:35:51;;;;;;;;;;;;;;;;;;5061415;28;19946;-40
2023/07/16 17:38:17;;;;;;;;;;;;;;;;;;5063250;28;20413;-40
2023/07/16 17:40:43;;;;;;;;;;;;;;;;;;5065439;28;19913;-40
2023/07/16 17:43:09;;;;;;;;;;;;;;;;;;5066052;28;19916;-40
2023/07/16 17:45:35;;;;;;;;;;;;;;;;;;5064028;28;19958;-40
2023/07/16 17:48:01;;;;;;;;;;;;;;;;;;5063688;28;20429;-40
2023/07/16 17:50:27;;;;;;;;;;;;;;;;;;5065380;28;19959;-40
2023/07/16 17:52:53;;;;;;;;;;;;;;;;;;5065309;28;20168;-40
2023/07/16 17:55:19;;;;;;;;;;;;;;;;;;5062411;28;19920;-40
2023/07/16 17:57:44;;;;;;;;;;;;;;;;;;5063127;28;19913;-40
2023/07/16 18:00:13;;;;;;;;;;;;;;;;;;5061174;28;20402;-40
2023/07/16 18:02:39;;;;;;;;;;;;;;;;;;5058654;28;19916;-40
2023/07/16 18:05:07;;;;;;;;;;;;;;;;;;5059978;28;19912;-40
2023/07/16 18:07:33;;;;;;;;;;;;;;;;;;5062773;28;19974;-40
2023/07/16 18:09:58;;;;;;;;;;;;;;;;;;5041567;28;20288;-40
2023/07/16 18:12:24;;;;;;;;;;;;;;;;;;5061691;28;19912;-40
2023/07/16 18:14:51;;;;;;;;;;;;;;;;;;5061710;28;19996;-40
2023/07/16 18:17:17;;;;;;;;;;;;;;;;;;5041823;28;19921;-40
2023/07/16 18:19:42;;;;;;;;;;;;;;;;;;5040656;28;19958;-40
2023/07/16 18:22:08;;;;;;;;;;;;;;;;;;5062151;28;20094;-40
2023/07/16 18:24:34;;;;;;;;;;;;;;;;;;5057325;28;19913;-40
2023/07/16 18:27:03;;;;;;;;;;;;;;;;;;5062203;28;19968;-40
2023/07/16 18:29:30;;;;;;;;;;;;;;;;;;5062237;28;19944;-40
2023/07/16 18:31:56;;;;;;;;;;;;;;;;;;5062791;28;19912;-40
2023/07/16 18:34:22;;;;;;;;;;;;;;;;;;5061746;28;19927;-40
2023/07/16 18:36:48;;;;;;;;;;;;;;;;;;5061855;28;21614;-40
2023/07/16 18:39:15;;;;;;;;;;;;;;;;;;5060960;28;20012;-40
2023/07/16 18:41:41;;;;;;;;;;;;;;;;;;5050858;28;19913;-40
2023/07/16 18:44:10;;;;;;;;;;;;;;;;;;5056757;28;19919;-40
2023/07/16 18:46:39;;;;;;;;;;;;;;;;;;5060169;28;19919;-40
2023/07/16 18:49:05;;;;;;;;;;;;;;;;;;5063450;28;19923;-40
2023/07/16 18:51:31;;;;;;;;;;;;;;;;;;5065386;28;19908;-40
2023/07/16 18:53:57;;;;;;;;;;;;;;;;;;5065285;28;20391;-40
2023/07/16 18:56:23;;;;;;;;;;;;;;;;;;5064229;28;19916;-40
2023/07/16 18:58:49;;;;;;;;;;;;;;;;;;5064951;28;20292;-40
2023/07/16 19:01:15;;;;;;;;;;;;;;;;;;5049333;28;20363;-40
2023/07/16 19:03:41;;;;;;;;;;;;;;;;;;5048409;28;20023;-40
2023/07/16 19:06:07;;;;;;;;;;;;;;;;;;5066923;28;19936;-40
2023/07/16 19:08:33;;;;;;;;;;;;;;;;;;5067573;28;19981;-40
2023/07/16 19:10:58;;;;;;;;;;;;;;;;;;5068233;28;19928;-40
2023/07/16 19:13:24;;;;;;;;;;;;;;;;;;5064984;28;20326;-40
2023/07/16 19:15:50;;;;;;;;;;;;;;;;;;5066016;28;19917;-40
2023/07/16 19:18:16;;;;;;;;;;;;;;;;;;5068701;28;19952;-40
2023/07/16 19:20:42;;;;;;;;;;;;;;;;;;5063383;28;19960;-40
2023/07/16 19:23:08;;;;;;;;;;;;;;;;;;5053953;28;19940;-40
2023/07/16 19:25:34;;;;;;;;;;;;;;;;;;5048981;28;19913;-40
2023/07/16 19:28:00;;;;;;;;;;;;;;;;;;5066694;28;19912;-40
2023/07/16 19:30:26;;;;;;;;;;;;;;;;;;5066950;28;20287;-40
2023/07/16 19:32:52;;;;;;;;;;;;;;;;;;5067478;28;20019;-40
2023/07/16 19:35:18;;;;;;;;;;;;;;;;;;5064704;28;20141;-39
2023/07/16 19:37:44;;;;;;;;;;;;;;;;;;5057674;28;19935;-40
2023/07/16 19:40:11;;;;;;;;;;;;;;;;;;5068153;28;19919;-40
2023/07/16 19:42:37;;;;;;;;;;;;;;;;;;5068198;28;19908;-40
2023/07/16 19:45:04;;;;;;;;;;;;;;;;;;5067376;28;19920;-39
2023/07/16 19:47:29;;;;;;;;;;;;;;;;;;5067388;28;20002;-40
2023/07/16 19:49:56;;;;;;;;;;;;;;;;;;5068727;28;19963;-40
2023/07/16 19:52:22;;;;;;;;;;;;;;;;;;5064626;28;19930;-39
2023/07/16 19:54:48;;;;;;;;;;;;;;;;;;5063902;28;20014;-40
2023/07/16 19:57:14;;;;;;;;;;;;;;;;;;5065711;28;19916;-39
2023/07/16 19:59:40;;;;;;;;;;;;;;;;;;5059682;28;19935;-39
2023/07/16 20:02:06;;;;;;;;;;;;;;;;;;5045309;28;20306;-39
2023/07/16 20:04:32;;;;;;;;;;;;;;;;;;5064227;28;19913;-39
2023/07/16 20:06:58;;;;;;;;;;;;;;;;;;5047266;28;20432;-39
2023/07/16 20:09:26;;;;;;;;;;;;;;;;;;5064825;28;19923;-40
2023/07/16 20:11:52;;;;;;;;;;;;;;;;;;5064729;28;19913;-39
2023/07/16 20:14:18;;;;;;;;;;;;;;;;;;5065756;28;19958;-39
2023/07/16 20:16:44;;;;;;;;;;;;;;;;;;5064466;28;19959;-39
2023/07/16 20:19:10;;;;;;;;;;;;;;;;;;5066984;28;20405;-39
2023/07/16 20:21:36;;;;;;;;;;;;;;;;;;5064713;28;19928;-39
2023/07/16 20:24:03;;;;;;;;;;;;;;;;;;5063471;28;19920;-39
2023/07/16 20:26:28;;;;;;;;;;;;;;;;;;5048738;28;19917;-39
2023/07/16 20:28:54;;;;;;;;;;;;;;;;;;5062353;28;19981;-39
2023/07/16 20:31:21;;;;;;;;;;;;;;;;;;5065081;28;19920;-39
2023/07/16 20:33:46;;;;;;;;;;;;;;;;;;5066031;28;19912;-39
2023/07/16 20:36:12;;;;;;;;;;;;;;;;;;5065668;28;19946;-40
2023/07/16 20:38:38;;;;;;;;;;;;;;;;;;5064191;28;19917;-39
2023/07/16 20:41:05;;;;;;;;;;;;;;;;;;5048129;28;19912;-39
2023/07/16 20:43:31;;;;;;;;;;;;;;;;;;5067148;28;20306;-39
2023/07/16 20:45:57;;;;;;;;;;;;;;;;;;5064992;28;19920;-39
2023/07/16 20:48:24;;;;;;;;;;;;;;;;;;5066010;28;19970;-39
2023/07/16 20:50:49;;;;;;;;;;;;;;;;;;5047705;28;19929;-39
2023/07/16 20:53:15;;;;;;;;;;;;;;;;;;5063873;28;20013;-39
2023/07/16 20:55:41;;;;;;;;;;;;;;;;;;5066751;28;19919;-39
2023/07/16 20:58:07;;;;;;;;;;;;;;;;;;5062758;28;20397;-39
2023/07/16 21:00:33;;;;;;;;;;;;;;;;;;5046866;28;20007;-39
2023/07/16 21:02:59;;;;;;;;;;;;;;;;;;5047252;28;20272;-39
2023/07/16 21:05:25;;;;;;;;;;;;;;;;;;5047203;28;19915;-39
2023/07/16 21:07:51;;;;;;;;;;;;;;;;;;5046884;28;20334;-39
2023/07/16 21:10:22;;;;;;;;;;;;;;;;;;5046151;28;20007;-39
2023/07/16 21:12:48;;;;;;;;;;;;;;;;;;5046699;28;20439;-39
2023/07/16 21:15:14;;;;;;;;;;;;;;;;;;5046964;28;20012;-39
2023/07/16 21:17:40;;;;;;;;;;;;;;;;;;5045169;28;19932;-39
2023/07/16 21:20:08;;;;;;;;;;;;;;;;;;5044667;28;19959;-39
2023/07/16 21:22:34;;;;;;;;;;;;;;;;;;5046048;28;19909;-39
2023/07/16 21:25:00;;;;;;;;;;;;;;;;;;5058287;28;20037;-39
2023/07/16 21:27:26;;;;;;;;;;;;;;;;;;5067113;28;19944;-39
2023/07/16 21:29:52;;;;;;;;;;;;;;;;;;5066426;28;20304;-40
2023/07/16 21:32:19;;;;;;;;;;;;;;;;;;5066312;28;19913;-39
2023/07/16 21:34:45;;;;;;;;;;;;;;;;;;5066366;28;20387;-40
2023/07/16 21:37:11;;;;;;;;;;;;;;;;;;5066131;28;19916;-39
2023/07/16 21:39:36;;;;;;;;;;;;;;;;;;5065911;28;19912;-39
2023/07/16 21:42:02;;;;;;;;;;;;;;;;;;5066390;28;19954;-40
2023/07/16 21:44:28;;;;;;;;;;;;;;;;;;5053885;28;20018;-39